Terminal Aerodrome Forecast
Issued by NWS Wilmington, NC

Home | Current Version | Previous Version | Text Only | Print | Product List | Glossary On
Versions: 1 2 3 4 5 6 7 8 9 10 11 12 13 14
000
FTUS42 KILM 080520
TAFMYR
TAF
KMYR 080520Z 0806/0906 21007KT P6SM FEW040 BKN200
     FM081700 21015G23KT P6SM VCTS SCT050CB
     FM090300 22010KT P6SM FEW050 FEW200
      AMD LTD TO CLD VIS AND WIND TIL 081100=

USA.gov is the U.S. government's official web portal to all federal, state and local government web resources and services.